Terminal Aerodrome Forecast
Issued by NWS

Home | Current Version | Previous Version | Text Only | Print | Product List | Glossary On
Versions: 1 2 3 4 5 6 7 8 9 10 11 12 13 14 15 16 17 18 19
000
FTUS44 KCRP 281900 AAA
TAFLRD
TAF AMD
KLRD 281932Z 2820/0118 36007KT 6SM BR OVC009
      TEMPO 2822/0102 OVC011
     FM010600 34007KT 6SM BR OVC005
     FM011600 02005KT P6SM OVC009=

USA.gov is the U.S. government's official web portal to all federal, state and local government web resources and services.